Universal City, California
Current Conditions -  °F | °C
As of 12:53 PM on Monday 24 Nov 2014 (Local Time) from KBUR Reporting Station
Clear Clear  
Wind Chill: 80°   Ceiling: Unl
Heat Index: 80°   Visibility: 10mi
Dew Point: 13°   Wind: 7mph
Humidity: 8%   Direction: 120°ESE
Pressure: 30.19"   Gusts: NA
Location:  34.13°N, 118.35°W
Report Text: KBUR 242053Z 12006KT 10SM CLR 27/M11 A3019 RMK AO2 SLP211 T02671106 58019
Loading
Personal Weather Stations






























Interactive Weather Map New forecast layout! Learn more

10-Day Weather Forecast

Advertisements
Track Severe Weather on mobile